createdAt,value
2023-03-10T05:47:36.655Z,0.68
2023-03-10T05:50:05.466Z,0.85
2023-03-10T05:52:36.938Z,0.60
2023-03-10T05:55:05.274Z,1.20
2023-03-10T05:57:33.263Z,0.80
2023-03-10T06:00:01.295Z,0.65
2023-03-10T06:02:29.253Z,0.75
2023-03-10T06:04:58.592Z,0.70
2023-03-10T06:07:26.612Z,0.80
2023-03-10T06:09:54.920Z,0.60
2023-03-10T06:12:23.008Z,0.80
2023-03-10T06:14:50.886Z,0.60
2023-03-10T06:17:19.728Z,0.60
2023-03-10T06:19:47.816Z,0.70
2023-03-10T06:22:17.095Z,0.60
2023-03-10T06:24:45.753Z,0.90
2023-03-10T06:27:13.681Z,1.02
2023-03-10T06:29:41.577Z,0.60
2023-03-10T06:32:09.697Z,0.70
2023-03-10T06:34:37.679Z,0.85
2023-03-10T06:37:05.580Z,1.23
2023-03-10T06:39:35.532Z,0.68
2023-03-10T06:42:03.460Z,0.80
2023-03-10T06:44:31.449Z,0.80
2023-03-10T06:46:59.534Z,0.70
2023-03-10T06:49:30.773Z,0.40
2023-03-10T06:51:59.091Z,0.43
2023-03-10T06:54:27.057Z,0.40
2023-03-10T06:56:56.309Z,0.60
2023-03-10T06:59:24.524Z,0.60
2023-03-10T07:01:52.494Z,0.50
2023-03-10T07:04:20.460Z,0.40
2023-03-10T07:06:48.496Z,0.60
2023-03-10T07:09:16.385Z,0.60
2023-03-10T07:11:44.324Z,0.50
2023-03-10T07:14:13.668Z,0.60
2023-03-10T07:16:41.666Z,0.50
2023-03-10T07:19:09.654Z,0.73
2023-03-10T07:21:37.636Z,0.60
2023-03-10T07:24:06.208Z,0.88
2023-03-10T07:26:34.313Z,0.50
2023-03-10T07:29:02.622Z,0.52
2023-03-10T07:31:32.734Z,0.60
2023-03-10T07:34:01.934Z,0.60
2023-03-10T07:36:30.250Z,0.90
2023-03-10T07:38:58.309Z,0.52
2023-03-10T07:41:26.427Z,0.77
2023-03-10T07:43:55.724Z,0.52
2023-03-10T15:02:35.708Z,0.40
2023-03-10T15:05:03.738Z,0.50
2023-03-10T15:07:31.789Z,1.35
2023-03-10T15:10:10.556Z,0.70
2023-03-10T15:12:40.677Z,1.90
2023-03-10T15:15:16.721Z,0.68
2023-03-10T15:17:46.593Z,0.70
2023-03-10T15:20:18.112Z,0.57
2023-03-10T15:22:46.629Z,0.50
2023-03-10T15:25:16.346Z,0.60
2023-03-10T15:27:44.737Z,0.40
2023-03-10T15:30:18.727Z,0.65
2023-03-10T15:32:48.086Z,0.60
2023-03-10T15:35:17.033Z,0.50
2023-03-10T15:37:45.862Z,0.63
2023-03-10T15:40:17.173Z,1.30
2023-03-10T15:42:45.392Z,0.60
2023-03-10T15:45:14.075Z,0.80
2023-03-10T15:47:42.093Z,1.10
2023-03-10T15:50:13.544Z,0.70
2023-03-10T15:52:45.970Z,1.55
2023-03-10T15:55:14.928Z,1.33
2023-03-10T15:57:43.042Z,1.38
2023-03-10T16:00:12.466Z,1.48
2023-03-10T16:02:40.437Z,0.98
2023-03-10T16:05:09.115Z,0.95
2023-03-10T16:07:38.803Z,0.90
2023-03-10T16:10:07.672Z,0.90
2023-03-10T16:12:35.842Z,1.42
2023-03-10T16:15:03.936Z,1.27
2023-03-10T16:17:32.238Z,1.20
2023-03-10T16:20:02.206Z,1.10
2023-03-10T16:22:30.309Z,1.67
2023-03-10T16:24:59.638Z,1.20
2023-03-10T16:27:27.797Z,1.27
2023-03-10T16:29:55.985Z,1.20
2023-03-10T16:32:24.031Z,0.98
2023-03-10T16:34:54.478Z,1.17
2023-03-10T16:37:22.405Z,0.95
2023-03-10T16:39:53.519Z,0.90
2023-03-10T16:42:23.356Z,0.90
2023-03-10T16:44:51.767Z,0.65
2023-03-10T16:47:19.945Z,0.80
2023-03-10T16:49:47.881Z,1.00
2023-03-10T16:52:15.830Z,0.90
2023-03-10T16:54:44.925Z,0.90
2023-03-10T16:57:12.964Z,1.02
2023-03-10T16:59:44.765Z,1.00
2023-03-10T17:02:16.105Z,1.05
2023-03-10T17:04:45.217Z,1.17
2023-03-10T17:07:14.218Z,1.02
2023-03-10T17:09:42.246Z,0.90
2023-03-10T17:12:10.474Z,1.15
2023-03-10T17:14:38.449Z,1.10
2023-03-10T17:17:08.239Z,1.50
2023-03-10T17:19:37.537Z,1.27
2023-03-10T17:22:05.481Z,1.17
2023-03-10T17:24:33.423Z,1.10
2023-03-10T17:27:01.346Z,1.20
2023-03-10T17:29:29.328Z,1.33
2023-03-10T17:31:57.317Z,1.30
2023-03-10T17:34:29.264Z,1.65
2023-03-10T17:36:57.212Z,1.40
2023-03-10T17:39:27.562Z,1.95
2023-03-10T17:41:55.855Z,1.85
2023-03-10T17:44:23.812Z,1.60
2023-03-10T17:46:52.931Z,1.10
2023-03-10T17:49:20.893Z,1.42
2023-03-10T17:51:50.491Z,1.48
2023-03-10T17:54:21.583Z,1.67
2023-03-10T17:56:50.662Z,1.75
2023-03-10T17:59:18.775Z,1.50
2023-03-10T18:01:47.142Z,1.83
2023-03-10T18:04:15.059Z,2.97
2023-03-10T18:06:43.755Z,2.00
2023-03-10T18:09:15.649Z,1.75
2023-03-10T18:11:43.631Z,2.72
2023-03-10T18:14:11.721Z,1.60
2023-03-10T18:16:41.134Z,1.95
2023-03-10T18:19:10.978Z,2.25
2023-03-10T18:21:39.110Z,2.15
2023-03-10T18:24:08.337Z,1.75
2023-03-10T18:26:38.222Z,1.92
2023-03-10T18:29:06.173Z,1.83
2023-03-10T18:31:35.395Z,1.45
2023-03-10T18:34:03.420Z,1.50
2023-03-10T18:36:32.990Z,1.80
2023-03-10T18:39:02.353Z,2.30
2023-03-10T18:41:30.903Z,1.98
2023-03-10T18:44:01.049Z,1.92
2023-03-10T18:46:29.138Z,2.70
2023-03-10T18:48:57.096Z,2.70
2023-03-10T18:51:26.362Z,2.85
2023-03-10T18:53:55.248Z,2.10
2023-03-10T18:56:26.182Z,2.25
2023-03-10T18:58:54.307Z,2.20
2023-03-10T19:01:23.677Z,1.90
2023-03-10T19:03:51.656Z,1.95
2023-03-10T19:06:20.032Z,1.92
2023-03-10T19:08:48.068Z,2.15
2023-03-10T19:11:16.098Z,2.28
2023-03-10T19:13:45.054Z,2.30
2023-03-10T19:16:13.384Z,2.88
2023-03-10T19:18:42.727Z,2.35
2023-03-10T19:21:12.958Z,2.00
2023-03-10T19:23:41.546Z,2.72
2023-03-10T19:26:09.952Z,2.33
2023-03-10T19:28:38.794Z,2.05
2023-03-10T19:31:10.685Z,2.33
2023-03-10T19:33:39.801Z,2.30
2023-03-10T19:36:12.661Z,6.03
2023-03-10T19:38:42.565Z,2.70
2023-03-10T19:41:13.767Z,4.50
2023-03-10T19:43:41.766Z,2.60
2023-03-10T19:46:12.520Z,2.70
2023-03-10T19:48:40.727Z,2.75
2023-03-10T19:51:17.131Z,3.05
2023-03-10T19:53:45.092Z,3.70
2023-03-10T19:56:16.443Z,4.10
2023-03-10T19:58:44.437Z,3.85
2023-03-10T20:01:13.967Z,3.25
2023-03-10T20:03:42.334Z,3.58
2023-03-10T20:06:11.755Z,3.10
2023-03-10T20:08:39.674Z,3.08
2023-03-10T20:11:11.754Z,3.13
2023-03-10T20:13:39.811Z,2.95
2023-03-10T20:16:08.148Z,2.60
2023-03-10T20:18:36.274Z,2.70
2023-03-10T20:21:04.530Z,2.25
2023-03-10T20:23:34.666Z,2.80
2023-03-10T20:26:03.286Z,1.73
2023-03-10T20:28:31.657Z,2.00
2023-03-10T20:30:59.568Z,1.52
2023-03-10T20:33:28.032Z,1.55
2023-03-10T20:35:56.278Z,1.92
2023-03-10T20:38:24.368Z,1.55
2023-03-10T20:40:53.676Z,1.50
2023-03-10T20:43:21.645Z,1.40
2023-03-10T20:45:52.840Z,1.50
2023-03-10T20:48:20.796Z,1.67
2023-03-10T20:50:54.734Z,1.20
2023-03-10T20:53:22.653Z,1.30
2023-03-10T20:55:50.529Z,1.30
2023-03-10T20:58:19.920Z,1.30
